createdAt,value
2024-02-03T00:00:22.089Z,559.00
2024-02-03T00:01:22.133Z,560.00
2024-02-03T00:02:22.183Z,560.00
2024-02-03T00:03:22.240Z,561.00
2024-02-03T00:04:22.308Z,558.00
2024-02-03T00:05:22.283Z,557.00
2024-02-03T00:06:22.416Z,557.00
2024-02-03T00:07:22.498Z,556.00
2024-02-03T00:59:53.911Z,541.00
2024-02-03T01:00:28.265Z,539.00
2024-02-03T01:01:28.231Z,544.00
2024-02-03T01:02:28.220Z,546.00
2024-02-03T01:03:28.390Z,545.00
2024-02-03T01:04:28.312Z,543.00
2024-02-03T01:05:28.278Z,540.00
2024-02-03T01:06:28.337Z,541.00
2024-02-03T01:07:28.308Z,543.00
2024-02-03T01:08:28.311Z,542.00
2024-02-03T01:09:28.347Z,543.00
2024-02-03T01:10:28.341Z,542.00
2024-02-03T01:11:28.357Z,540.00
2024-02-03T01:12:28.406Z,543.00
2024-02-03T01:13:28.407Z,543.00
2024-02-03T01:14:28.411Z,542.00
2024-02-03T01:15:28.472Z,540.00
2024-02-03T01:16:28.428Z,540.00
2024-02-03T01:17:28.452Z,543.00
2024-02-03T01:18:28.603Z,546.00
2024-02-03T01:19:28.557Z,548.00
2024-02-03T01:20:28.522Z,545.00
2024-02-03T01:21:28.570Z,542.00
2024-02-03T01:22:28.557Z,540.00
2024-02-03T01:23:28.547Z,541.00
2024-02-03T01:24:28.621Z,545.00
2024-02-03T01:25:28.572Z,550.00
2024-02-03T01:26:28.587Z,549.00
2024-02-03T01:27:28.671Z,550.00
2024-02-03T01:28:28.634Z,556.00
2024-02-03T01:29:29.701Z,554.00
2024-02-03T01:30:28.674Z,553.00
2024-02-03T01:31:28.689Z,556.00
2024-02-03T01:32:28.674Z,559.00
2024-02-03T01:33:28.750Z,558.00
2024-02-03T01:34:28.855Z,557.00
2024-02-03T01:35:28.718Z,556.00
2024-02-03T01:36:28.763Z,555.00
2024-02-03T01:37:28.735Z,557.00
2024-02-03T01:38:28.757Z,553.00
2024-02-03T01:39:28.810Z,547.00
2024-02-03T01:40:28.800Z,549.00
2024-02-03T01:41:28.817Z,549.00
2024-02-03T01:42:28.905Z,547.00
2024-02-03T01:43:28.893Z,550.00
2024-02-03T01:44:28.920Z,551.00
2024-02-03T01:45:28.967Z,549.00
2024-02-03T01:46:28.977Z,548.00
2024-02-03T01:47:29.064Z,551.00
2024-02-03T01:48:29.111Z,553.00
2024-02-03T01:49:29.166Z,551.00
2024-02-03T01:50:29.141Z,548.00
2024-02-03T01:51:29.197Z,547.00
2024-02-03T01:52:29.191Z,548.00
2024-02-03T01:53:29.222Z,547.00
2024-02-03T01:54:29.283Z,545.00
2024-02-03T01:55:29.280Z,545.00
2024-02-03T01:56:29.307Z,545.00
2024-02-03T01:57:29.380Z,543.00
2024-02-03T01:58:29.359Z,538.00
2024-02-03T01:59:29.402Z,539.00
2024-02-03T02:00:29.391Z,541.00
2024-02-03T02:01:29.465Z,530.00
2024-02-03T02:02:29.386Z,542.00
2024-02-03T02:03:29.500Z,540.00
2024-02-03T02:04:29.488Z,546.00
2024-02-03T02:05:29.557Z,547.00
2024-02-03T02:06:31.329Z,544.00
2024-02-03T02:07:29.513Z,535.00
2024-02-03T02:08:29.514Z,538.00
2024-02-03T02:09:29.579Z,536.00
2024-02-03T02:10:29.557Z,538.00
2024-02-03T02:11:29.572Z,537.00
2024-02-03T02:12:29.621Z,536.00
2024-02-03T02:13:29.608Z,534.00
2024-02-03T02:14:29.613Z,533.00
2024-02-03T02:15:29.652Z,533.00
2024-02-03T02:16:29.633Z,532.00
2024-02-03T02:17:29.721Z,536.00
2024-02-03T02:18:29.877Z,525.00
2024-02-03T02:19:29.765Z,529.00
2024-02-03T02:20:29.715Z,530.00
2024-02-03T02:21:29.746Z,535.00
2024-02-03T02:22:29.732Z,537.00
2024-02-03T02:23:29.764Z,537.00
2024-02-03T02:24:29.822Z,535.00
2024-02-03T02:25:29.780Z,535.00
2024-02-03T02:26:29.789Z,527.00
2024-02-03T02:27:29.825Z,524.00
2024-02-03T02:28:29.808Z,526.00
2024-02-03T02:29:29.817Z,526.00
2024-02-03T02:30:29.849Z,530.00
2024-02-03T02:31:29.842Z,530.00
2024-02-03T02:32:29.864Z,531.00
2024-02-03T02:33:29.937Z,533.00
2024-02-03T02:34:29.953Z,533.00
2024-02-03T02:35:29.915Z,531.00
2024-02-03T02:36:29.920Z,528.00
2024-02-03T02:37:29.909Z,530.00
2024-02-03T02:38:29.941Z,530.00
2024-02-03T02:39:29.989Z,530.00
2024-02-03T02:40:29.973Z,528.00
2024-02-03T02:41:29.982Z,529.00
2024-02-03T02:42:30.029Z,531.00
2024-02-03T02:43:30.018Z,532.00
2024-02-03T02:44:30.061Z,532.00
2024-02-03T02:45:30.049Z,531.00
2024-02-03T02:46:30.055Z,535.00
2024-02-03T02:47:30.082Z,536.00
2024-02-03T02:48:30.326Z,537.00
2024-02-03T02:49:30.202Z,540.00
2024-02-03T02:50:30.129Z,533.00
2024-02-03T02:51:30.170Z,536.00
2024-02-03T02:52:30.112Z,537.00
2024-02-03T02:53:30.123Z,537.00
2024-02-03T02:54:30.181Z,538.00
2024-02-03T02:55:30.134Z,536.00
2024-02-03T02:56:30.138Z,534.00
2024-02-03T02:57:30.174Z,532.00
2024-02-03T02:58:30.157Z,533.00
2024-02-03T02:59:30.151Z,533.00
2024-02-03T03:00:30.231Z,532.00
2024-02-03T03:01:30.202Z,533.00
2024-02-03T03:02:30.196Z,534.00
2024-02-03T03:03:30.230Z,538.00
2024-02-03T03:04:30.283Z,539.00
2024-02-03T03:05:30.208Z,537.00
2024-02-03T03:06:30.235Z,536.00
2024-02-03T03:07:30.275Z,534.00
2024-02-03T03:08:30.236Z,532.00
2024-02-03T03:09:30.256Z,534.00
2024-02-03T03:10:30.247Z,536.00
2024-02-03T03:11:30.267Z,538.00
2024-02-03T03:12:30.504Z,537.00
2024-02-03T03:13:30.350Z,543.00
2024-02-03T03:14:30.401Z,548.00
2024-02-03T03:15:30.465Z,548.00
2024-02-03T03:16:30.446Z,549.00
2024-02-03T03:17:30.471Z,550.00
2024-02-03T03:18:30.565Z,550.00
2024-02-03T03:19:30.550Z,551.00
2024-02-03T03:20:30.468Z,548.00
2024-02-03T03:21:30.531Z,547.00
2024-02-03T03:22:30.527Z,546.00
2024-02-03T03:23:30.609Z,543.00
2024-02-03T03:24:30.595Z,542.00
2024-02-03T03:25:30.590Z,541.00
2024-02-03T03:26:30.736Z,540.00
2024-02-03T03:27:30.638Z,541.00
2024-02-03T03:28:30.649Z,542.00
2024-02-03T03:29:30.682Z,544.00
2024-02-03T03:30:30.703Z,544.00
2024-02-03T03:31:30.699Z,545.00
2024-02-03T03:32:30.849Z,548.00
2024-02-03T03:33:30.801Z,547.00
2024-02-03T03:34:30.992Z,545.00
2024-02-03T03:35:30.764Z,546.00
2024-02-03T03:36:30.828Z,545.00
2024-02-03T03:37:30.841Z,546.00
2024-02-03T03:38:30.969Z,545.00
2024-02-03T03:39:31.009Z,544.00
2024-02-03T03:40:30.937Z,546.00
2024-02-03T03:41:30.970Z,547.00
2024-02-03T03:42:31.034Z,547.00
2024-02-03T03:43:31.025Z,548.00
2024-02-03T03:44:31.064Z,550.00
2024-02-03T03:45:31.114Z,551.00
2024-02-03T03:46:31.123Z,549.00
2024-02-03T03:47:31.188Z,547.00
2024-02-03T03:48:31.245Z,545.00
2024-02-03T03:49:31.303Z,547.00
2024-02-03T03:50:31.230Z,548.00
2024-02-03T03:51:31.332Z,548.00
2024-02-03T03:52:31.322Z,549.00
2024-02-03T03:53:31.387Z,551.00
2024-02-03T03:54:31.485Z,548.00
2024-02-03T03:55:31.530Z,551.00
2024-02-03T03:56:31.564Z,549.00
2024-02-03T03:57:31.657Z,551.00
2024-02-03T03:58:31.699Z,551.00
2024-02-03T03:59:31.745Z,551.00
2024-02-03T04:00:31.890Z,554.00
2024-02-03T04:01:31.921Z,555.00
2024-02-03T04:02:31.944Z,554.00
2024-02-03T04:03:32.106Z,551.00
2024-02-03T04:04:32.077Z,553.00
2024-02-03T04:05:32.128Z,550.00
2024-02-03T04:06:32.359Z,550.00
2024-02-03T04:07:32.237Z,551.00
2024-02-03T04:08:32.340Z,546.00
2024-02-03T04:09:32.391Z,545.00
2024-02-03T04:10:32.560Z,544.00
2024-02-03T04:11:32.539Z,545.00
2024-02-03T04:12:32.596Z,545.00
2024-02-03T04:13:32.614Z,547.00
2024-02-03T04:14:32.670Z,550.00
2024-02-03T04:15:32.881Z,554.00
2024-02-03T04:16:32.776Z,552.00
2024-02-03T04:17:32.841Z,550.00
2024-02-03T04:18:32.978Z,548.00
2024-02-03T04:19:33.096Z,548.00
2024-02-03T04:20:33.033Z,553.00
2024-02-03T04:21:33.277Z,549.00
2024-02-03T04:22:33.127Z,549.00
2024-02-03T04:23:33.187Z,552.00
2024-02-03T04:24:33.282Z,551.00
2024-02-03T04:25:33.293Z,552.00
2024-02-03T04:26:33.354Z,553.00
2024-02-03T04:27:33.515Z,555.00
2024-02-03T04:28:33.485Z,554.00
2024-02-03T04:29:33.540Z,554.00
2024-02-03T04:30:33.615Z,552.00
2024-02-03T04:31:33.689Z,550.00
2024-02-03T04:32:33.794Z,549.00
2024-02-03T04:33:33.944Z,552.00
2024-02-03T04:34:34.107Z,555.00
2024-02-03T04:35:33.988Z,556.00
2024-02-03T04:36:34.134Z,556.00
2024-02-03T04:37:34.133Z,556.00
2024-02-03T04:38:34.207Z,553.00
2024-02-03T04:39:34.332Z,550.00
2024-02-03T04:40:34.326Z,550.00
2024-02-03T04:41:34.392Z,551.00
2024-02-03T04:42:34.505Z,552.00
2024-02-03T04:43:34.535Z,550.00
2024-02-03T04:44:34.558Z,553.00
2024-02-03T04:45:34.677Z,548.00
2024-02-03T04:46:34.650Z,548.00
2024-02-03T04:47:34.886Z,548.00
2024-02-03T04:48:34.917Z,547.00
2024-02-03T04:49:34.913Z,551.00
2024-02-03T04:50:34.901Z,553.00
2024-02-03T04:51:34.981Z,556.00
2024-02-03T04:52:35.033Z,556.00
2024-02-03T04:53:35.096Z,557.00
2024-02-03T04:54:35.197Z,556.00
2024-02-03T04:55:35.213Z,556.00
2024-02-03T04:56:35.300Z,557.00
2024-02-03T04:57:35.355Z,556.00
2024-02-03T04:58:35.408Z,554.00
2024-02-03T04:59:35.507Z,554.00
2024-02-03T05:00:35.610Z,555.00
2024-02-03T05:01:35.649Z,555.00
2024-02-03T05:02:35.698Z,556.00
2024-02-03T05:03:35.796Z,554.00
2024-02-03T05:04:35.951Z,554.00
2024-02-03T05:05:35.901Z,555.00
2024-02-03T05:06:36.161Z,558.00
2024-02-03T05:07:44.119Z,561.00
2024-02-03T05:08:46.153Z,555.00
2024-02-03T05:09:45.248Z,555.00
2024-02-03T05:10:45.194Z,553.00
2024-02-03T05:11:45.242Z,551.00
2024-02-03T05:12:45.357Z,557.00
2024-02-03T05:13:45.338Z,558.00
2024-02-03T05:14:45.384Z,556.00
2024-02-03T05:15:45.455Z,556.00
2024-02-03T05:16:45.412Z,557.00
2024-02-03T05:17:45.563Z,556.00
2024-02-03T05:18:45.598Z,560.00
2024-02-03T05:19:45.724Z,558.00
2024-02-03T05:20:45.532Z,559.00
2024-02-03T05:21:45.592Z,554.00
2024-02-03T05:22:45.620Z,553.00
2024-02-03T05:23:45.640Z,552.00
2024-02-03T05:24:45.818Z,553.00
2024-02-03T05:25:45.846Z,555.00
2024-02-03T05:26:45.977Z,557.00
2024-02-03T05:27:46.068Z,558.00
2024-02-03T05:28:46.141Z,559.00
2024-02-03T05:29:46.252Z,557.00
2024-02-03T05:30:46.380Z,558.00
2024-02-03T05:31:46.428Z,553.00
2024-02-03T05:32:46.561Z,550.00
2024-02-03T05:33:46.678Z,550.00
2024-02-03T05:34:46.822Z,548.00
2024-02-03T05:35:46.759Z,547.00
2024-02-03T05:36:46.837Z,545.00
2024-02-03T05:37:46.912Z,544.00
2024-02-03T05:38:47.003Z,546.00
2024-02-03T05:39:47.184Z,547.00
2024-02-03T05:40:47.207Z,544.00
2024-02-03T05:41:47.302Z,544.00
2024-02-03T05:42:47.464Z,546.00
2024-02-03T05:43:47.498Z,547.00
2024-02-03T05:44:47.597Z,548.00
2024-02-03T05:45:47.783Z,547.00
2024-02-03T05:46:47.819Z,547.00
2024-02-03T05:47:47.922Z,545.00
2024-02-03T05:48:48.058Z,544.00
2024-02-03T05:49:48.164Z,544.00
2024-02-03T05:50:48.197Z,545.00
2024-02-03T05:51:48.362Z,549.00
2024-02-03T05:52:48.380Z,549.00
2024-02-03T05:53:48.491Z,549.00
2024-02-03T05:54:48.623Z,546.00
2024-02-03T05:55:48.675Z,544.00
2024-02-03T05:56:48.762Z,541.00
2024-02-03T05:57:48.925Z,542.00
2024-02-03T05:58:49.686Z,540.00
2024-02-03T05:59:51.664Z,544.00
2024-02-03T06:00:49.094Z,547.00
2024-02-03T06:01:49.066Z,554.00
2024-02-03T06:02:49.099Z,555.00
2024-02-03T06:03:49.306Z,559.00
2024-02-03T06:04:49.285Z,560.00
2024-02-03T06:06:05.714Z,559.00
2024-02-03T06:06:49.400Z,556.00
2024-02-03T06:07:49.290Z,556.00
2024-02-03T06:08:49.266Z,555.00
2024-02-03T06:09:49.416Z,556.00
2024-02-03T06:10:49.491Z,556.00
2024-02-03T06:11:49.382Z,556.00
2024-02-03T06:12:49.508Z,556.00
2024-02-03T06:13:49.439Z,557.00
2024-02-03T06:14:49.488Z,558.00
2024-02-03T06:15:49.620Z,557.00
2024-02-03T06:16:49.549Z,557.00
2024-02-03T06:17:49.614Z,557.00
2024-02-03T06:18:49.750Z,559.00
2024-02-03T06:19:49.900Z,563.00
2024-02-03T06:20:49.688Z,565.00
2024-02-03T06:21:49.772Z,564.00
2024-02-03T06:22:49.771Z,565.00
2024-02-03T06:23:49.779Z,563.00
2024-02-03T06:24:49.932Z,563.00
2024-02-03T06:25:49.851Z,564.00
2024-02-03T06:26:49.894Z,566.00
2024-02-03T06:27:50.042Z,568.00
2024-02-03T06:28:50.098Z,569.00
2024-02-03T06:29:50.141Z,572.00
2024-02-03T06:30:50.240Z,571.00
2024-02-03T06:31:50.199Z,570.00
2024-02-03T06:32:50.352Z,570.00
2024-02-03T06:33:50.374Z,568.00
2024-02-03T06:34:50.541Z,565.00
2024-02-03T06:35:50.357Z,569.00
2024-02-03T06:36:50.584Z,565.00
2024-02-03T06:37:50.456Z,557.00
2024-02-03T06:38:50.499Z,557.00
2024-02-03T06:39:50.572Z,557.00
2024-02-03T06:40:50.556Z,558.00
2024-02-03T06:41:50.596Z,560.00
2024-02-03T06:42:49.734Z,563.00
2024-02-03T06:43:50.679Z,563.00
2024-02-03T06:44:53.188Z,572.00
2024-02-03T06:45:50.871Z,565.00
2024-02-03T06:46:50.900Z,569.00
2024-02-03T06:47:51.024Z,573.00
2024-02-03T06:48:51.109Z,567.00
2024-02-03T06:49:51.262Z,563.00
2024-02-03T06:50:51.208Z,561.00
2024-02-03T06:51:51.475Z,558.00
2024-02-03T06:52:51.317Z,555.00
2024-02-03T06:53:51.364Z,558.00
2024-02-03T06:54:51.504Z,561.00
2024-02-03T06:55:51.474Z,562.00
2024-02-03T06:56:51.504Z,565.00
2024-02-03T06:57:51.642Z,569.00
2024-02-03T06:58:51.599Z,570.00
2024-02-03T06:59:51.640Z,568.00
2024-02-03T07:00:51.727Z,569.00
2024-02-03T07:01:51.925Z,564.00
2024-02-03T07:02:51.763Z,560.00
2024-02-03T07:03:51.916Z,562.00
2024-02-03T07:04:52.104Z,564.00
2024-02-03T07:05:51.951Z,565.00
2024-02-03T07:06:52.001Z,570.00
2024-02-03T07:07:51.994Z,569.00
2024-02-03T07:08:52.137Z,565.00
2024-02-03T07:09:52.236Z,566.00
2024-02-03T07:10:52.158Z,569.00
2024-02-03T07:12:00.724Z,572.00
2024-02-03T07:12:52.297Z,577.00
2024-02-03T07:13:52.317Z,578.00
2024-02-03T07:14:52.372Z,571.00
2024-02-03T07:15:52.488Z,570.00
2024-02-03T07:16:52.487Z,566.00
2024-02-03T07:17:52.643Z,559.00
2024-02-03T07:18:52.714Z,556.00
2024-02-03T07:19:52.748Z,558.00
2024-02-03T07:20:52.732Z,556.00
2024-02-03T07:21:52.916Z,557.00
2024-02-03T07:22:52.895Z,559.00
2024-02-03T07:23:52.881Z,561.00
2024-02-03T07:24:53.035Z,558.00
2024-02-03T07:25:52.991Z,558.00
2024-02-03T07:26:53.041Z,560.00
2024-02-03T07:27:53.092Z,562.00
2024-02-03T07:28:53.111Z,561.00
2024-02-03T07:29:53.142Z,565.00
2024-02-03T07:30:53.268Z,570.00
2024-02-03T07:31:53.225Z,570.00
2024-02-03T07:32:53.317Z,570.00
2024-02-03T07:33:53.410Z,572.00
2024-02-03T07:34:53.603Z,572.00
2024-02-03T07:35:53.422Z,576.00
2024-02-03T07:36:53.499Z,570.00
2024-02-03T07:37:53.553Z,568.00
2024-02-03T07:38:53.632Z,567.00
2024-02-03T07:39:53.801Z,563.00
2024-02-03T07:40:53.757Z,554.00
2024-02-03T07:41:53.822Z,555.00
2024-02-03T07:42:53.917Z,554.00
2024-02-03T07:43:53.953Z,555.00
2024-02-03T07:44:53.994Z,555.00
2024-02-03T07:45:54.208Z,551.00
2024-02-03T07:46:54.131Z,556.00
2024-02-03T07:47:54.237Z,560.00
2024-02-03T07:48:54.270Z,563.00
2024-02-03T07:49:54.236Z,566.00
2024-02-03T07:50:54.201Z,569.00
2024-02-03T07:51:54.389Z,568.00
2024-02-03T07:52:54.283Z,567.00
2024-02-03T07:53:54.340Z,560.00
2024-02-03T07:54:54.414Z,556.00
2024-02-03T07:55:54.410Z,556.00
2024-02-03T07:56:54.465Z,559.00
2024-02-03T07:57:54.522Z,559.00
2024-02-03T07:58:54.548Z,562.00
2024-02-03T07:59:54.650Z,565.00
2024-02-03T08:00:54.729Z,563.00
2024-02-03T08:01:54.691Z,561.00
2024-02-03T08:02:54.736Z,559.00
2024-02-03T08:03:54.888Z,561.00
2024-02-03T08:04:54.936Z,558.00
2024-02-03T08:05:54.897Z,558.00
2024-02-03T08:06:54.995Z,554.00
2024-02-03T08:07:55.015Z,553.00
2024-02-03T08:08:55.075Z,552.00
2024-02-03T08:09:55.265Z,550.00
2024-02-03T08:10:55.208Z,543.00
2024-02-03T08:11:55.228Z,541.00
2024-02-03T08:12:55.332Z,547.00
2024-02-03T08:13:55.318Z,548.00
2024-02-03T08:14:55.361Z,545.00
2024-02-03T08:15:55.500Z,548.00
2024-02-03T08:16:55.453Z,548.00
2024-02-03T08:17:55.535Z,548.00
2024-02-03T08:18:55.637Z,549.00
2024-02-03T08:19:55.727Z,548.00
2024-02-03T08:20:55.669Z,549.00
2024-02-03T08:21:55.749Z,551.00
2024-02-03T08:22:55.740Z,552.00
2024-02-03T08:23:55.786Z,555.00
2024-02-03T08:24:55.888Z,555.00
2024-02-03T08:25:55.852Z,555.00
2024-02-03T08:26:55.917Z,555.00
2024-02-03T08:27:56.010Z,554.00
2024-02-03T08:28:55.989Z,551.00
2024-02-03T08:29:56.043Z,548.00
2024-02-03T08:30:56.107Z,547.00
2024-02-03T08:31:56.133Z,549.00
2024-02-03T08:32:56.279Z,549.00
2024-02-03T08:33:56.492Z,549.00
2024-02-03T08:35:55.405Z,553.00
2024-02-03T08:36:56.412Z,554.00
2024-02-03T08:37:56.411Z,556.00
2024-02-03T08:38:56.470Z,557.00
2024-02-03T08:39:56.566Z,556.00
2024-02-03T08:40:56.617Z,556.00
2024-02-03T08:41:56.682Z,556.00
2024-02-03T08:42:56.800Z,551.00
2024-02-03T08:43:56.834Z,549.00
2024-02-03T08:44:56.891Z,548.00
2024-02-03T08:45:56.994Z,548.00
2024-02-03T08:46:57.006Z,549.00
2024-02-03T08:47:57.178Z,545.00
2024-02-03T08:48:57.251Z,544.00
2024-02-03T08:49:57.184Z,546.00
2024-02-03T08:50:57.242Z,546.00
2024-02-03T08:51:57.444Z,547.00
2024-02-03T08:52:57.373Z,549.00
2024-02-03T08:53:57.435Z,551.00
2024-02-03T08:54:57.555Z,551.00
2024-02-03T08:55:57.588Z,546.00
2024-02-03T08:56:57.624Z,551.00
2024-02-03T08:57:57.735Z,552.00
2024-02-03T08:58:57.769Z,551.00
2024-02-03T08:59:57.782Z,549.00
2024-02-03T09:00:57.932Z,546.00
2024-02-03T09:01:57.881Z,547.00
2024-02-03T09:02:57.910Z,543.00
2024-02-03T09:03:58.028Z,541.00
2024-02-03T09:04:57.985Z,545.00
2024-02-03T09:05:58.131Z,546.00
2024-02-03T09:06:58.100Z,548.00
2024-02-03T09:07:58.150Z,549.00
2024-02-03T09:08:58.170Z,550.00
2024-02-03T09:09:59.992Z,551.00
2024-02-03T09:10:58.270Z,549.00
2024-02-03T09:11:58.341Z,551.00
2024-02-03T09:12:58.427Z,550.00
2024-02-03T09:13:58.421Z,547.00
2024-02-03T09:14:58.479Z,546.00
2024-02-03T09:15:58.505Z,548.00
2024-02-03T09:16:58.528Z,549.00
2024-02-03T09:17:58.614Z,548.00
2024-02-03T09:18:58.706Z,549.00
2024-02-03T09:19:58.808Z,549.00
2024-02-03T09:20:58.648Z,548.00
2024-02-03T09:21:58.758Z,549.00
2024-02-03T09:22:58.697Z,548.00
2024-02-03T09:23:58.728Z,547.00
2024-02-03T09:24:58.792Z,547.00
2024-02-03T09:25:58.785Z,548.00
2024-02-03T09:26:58.814Z,549.00
2024-02-03T09:27:58.835Z,548.00
2024-02-03T09:28:58.837Z,548.00
2024-02-03T09:29:58.879Z,546.00
2024-02-03T09:30:58.967Z,544.00
2024-02-03T09:31:59.303Z,545.00
2024-02-03T09:32:59.007Z,548.00
2024-02-03T09:33:59.022Z,548.00
2024-02-03T09:34:58.941Z,547.00
2024-02-03T09:35:58.960Z,547.00
2024-02-03T09:37:59.738Z,550.00
2024-02-03T09:38:58.977Z,553.00
2024-02-03T09:39:59.020Z,556.00
2024-02-03T09:40:59.030Z,557.00
2024-02-03T09:41:59.017Z,556.00
2024-02-03T09:42:59.043Z,554.00
2024-02-03T09:43:59.027Z,555.00
2024-02-03T09:44:59.060Z,555.00
2024-02-03T09:45:59.124Z,555.00
2024-02-03T09:46:59.083Z,554.00
2024-02-03T09:47:59.118Z,553.00
2024-02-03T09:48:59.126Z,552.00
2024-02-03T09:49:59.120Z,554.00
2024-02-03T09:50:59.118Z,555.00
2024-02-03T09:51:59.153Z,554.00
2024-02-03T09:52:59.167Z,552.00
2024-02-03T09:53:59.190Z,550.00
2024-02-03T09:54:59.257Z,550.00
2024-02-03T09:55:59.217Z,549.00
2024-02-03T09:56:59.228Z,550.00
2024-02-03T09:57:59.280Z,550.00
2024-02-03T09:58:59.258Z,552.00
2024-02-03T09:59:59.308Z,550.00
2024-02-03T10:00:59.375Z,552.00
2024-02-03T10:01:59.342Z,553.00
2024-02-03T10:02:59.449Z,549.00
2024-02-03T10:03:59.519Z,544.00
2024-02-03T10:04:59.556Z,547.00
2024-02-03T10:05:59.441Z,550.00
2024-02-03T10:06:59.417Z,551.00
2024-02-03T10:07:59.411Z,552.00
2024-02-03T10:08:59.443Z,550.00
2024-02-03T10:10:58.551Z,543.00
2024-02-03T10:11:59.542Z,544.00
2024-02-03T10:12:59.512Z,543.00
2024-02-03T10:13:59.467Z,546.00
2024-02-03T10:14:59.465Z,544.00
2024-02-03T10:15:59.659Z,538.00
2024-02-03T10:16:59.513Z,539.00
2024-02-03T10:17:59.673Z,540.00
2024-02-03T10:18:59.651Z,540.00
2024-02-03T10:19:59.624Z,541.00
2024-02-03T10:20:59.525Z,542.00
2024-02-03T10:21:59.596Z,542.00
2024-02-03T10:22:59.572Z,541.00
2024-02-03T10:23:59.535Z,538.00
2024-02-03T10:24:59.656Z,539.00
2024-02-03T10:25:59.548Z,542.00
2024-02-03T10:26:59.559Z,542.00
2024-02-03T10:27:59.580Z,541.00
2024-02-03T10:28:59.531Z,538.00
2024-02-03T10:29:59.527Z,536.00
2024-02-03T10:31:02.060Z,538.00
2024-02-03T10:31:59.547Z,539.00
2024-02-03T10:32:59.548Z,539.00
2024-02-03T10:33:59.691Z,538.00
2024-02-03T10:34:59.674Z,540.00
2024-02-03T10:35:59.509Z,539.00
2024-02-03T10:36:59.564Z,532.00
2024-02-03T10:37:59.547Z,531.00
2024-02-03T10:38:59.519Z,531.00
2024-02-03T10:39:59.563Z,531.00
2024-02-03T10:40:59.501Z,534.00
2024-02-03T10:41:59.494Z,534.00
2024-02-03T10:43:02.541Z,531.00
2024-02-03T10:43:59.500Z,532.00
2024-02-03T10:44:59.493Z,533.00
2024-02-03T10:45:59.538Z,531.00
2024-02-03T10:46:59.509Z,530.00
2024-02-03T10:47:59.807Z,532.00
2024-02-03T10:48:59.600Z,531.00
2024-02-03T10:49:59.562Z,530.00
2024-02-03T10:50:59.536Z,529.00
2024-02-03T10:51:59.499Z,529.00
2024-02-03T10:52:59.513Z,524.00
2024-02-03T10:53:59.526Z,524.00
2024-02-03T10:54:59.568Z,523.00
2024-02-03T10:55:59.492Z,523.00
2024-02-03T10:56:59.481Z,521.00
2024-02-03T10:57:59.463Z,522.00
2024-02-03T10:59:00.882Z,523.00
2024-02-03T10:59:59.513Z,524.00
2024-02-03T11:00:59.604Z,522.00
2024-02-03T11:01:59.574Z,521.00
2024-02-03T11:02:59.591Z,520.00
2024-02-03T11:03:59.685Z,516.00
2024-02-03T11:05:02.124Z,517.00
2024-02-03T11:05:59.691Z,519.00
2024-02-03T11:06:59.654Z,520.00
2024-02-03T11:07:59.577Z,520.00
2024-02-03T11:08:59.546Z,518.00
2024-02-03T11:09:59.629Z,518.00
2024-02-03T11:10:59.518Z,513.00
2024-02-03T11:11:59.518Z,514.00
2024-02-03T11:12:59.489Z,516.00
2024-02-03T11:13:59.479Z,516.00
2024-02-03T11:14:59.552Z,516.00
2024-02-03T11:15:59.910Z,517.00
2024-02-03T11:17:02.428Z,515.00
2024-02-03T11:17:59.487Z,514.00
2024-02-03T11:18:59.498Z,516.00
2024-02-03T11:19:59.564Z,515.00
2024-02-03T11:20:59.354Z,514.00
2024-02-03T11:21:59.335Z,515.00
2024-02-03T11:23:00.825Z,515.00
2024-02-03T11:23:59.285Z,516.00
2024-02-03T11:24:59.266Z,520.00
2024-02-03T11:25:59.224Z,520.00
2024-02-03T11:26:59.215Z,522.00
2024-02-03T11:29:24.430Z,514.00
2024-02-03T11:29:59.173Z,513.00
2024-02-03T11:31:00.169Z,511.00
2024-02-03T11:31:59.234Z,512.00
2024-02-03T11:32:59.168Z,513.00
2024-02-03T11:33:59.236Z,510.00
2024-02-03T11:35:00.886Z,513.00
2024-02-03T11:35:59.295Z,512.00
2024-02-03T11:36:59.050Z,511.00
2024-02-03T11:37:58.995Z,509.00
2024-02-03T11:38:59.002Z,511.00
2024-02-03T11:39:58.971Z,511.00
2024-02-03T11:41:01.071Z,512.00
2024-02-03T11:41:58.875Z,514.00
2024-02-03T11:42:58.837Z,513.00
2024-02-03T11:43:58.808Z,510.00
2024-02-03T11:44:58.809Z,511.00
2024-02-03T11:45:58.776Z,512.00
2024-02-03T11:46:59.958Z,508.00
2024-02-03T11:47:58.685Z,510.00
2024-02-03T11:48:58.822Z,515.00
2024-02-03T11:49:58.690Z,515.00
2024-02-03T11:50:58.602Z,517.00
2024-02-03T11:51:58.554Z,520.00
2024-02-03T11:52:58.561Z,520.00
2024-02-03T11:53:58.519Z,520.00
2024-02-03T11:54:58.570Z,519.00
2024-02-03T11:55:58.470Z,518.00
2024-02-03T11:57:21.886Z,514.00
2024-02-03T11:57:58.495Z,515.00
2024-02-03T11:58:58.466Z,516.00
2024-02-03T11:59:58.465Z,517.00
2024-02-03T12:00:58.452Z,514.00
2024-02-03T12:01:58.438Z,510.00
2024-02-03T12:02:58.422Z,511.00
2024-02-03T12:03:58.457Z,510.00
2024-02-03T12:04:58.398Z,510.00
2024-02-03T12:05:58.377Z,509.00
2024-02-03T12:06:58.475Z,509.00
2024-02-03T12:07:58.434Z,507.00
2024-02-03T12:08:58.343Z,508.00
2024-02-03T12:09:58.496Z,511.00
2024-02-03T12:10:58.351Z,509.00
2024-02-03T12:11:58.308Z,508.00
2024-02-03T12:12:58.307Z,509.00
2024-02-03T12:13:58.282Z,511.00
2024-02-03T12:14:58.248Z,513.00
2024-02-03T12:15:58.320Z,513.00
2024-02-03T12:16:58.207Z,514.00
2024-02-03T12:17:58.230Z,515.00
2024-02-03T12:18:58.246Z,515.00
2024-02-03T12:19:58.226Z,513.00
2024-02-03T12:20:58.149Z,514.00
2024-02-03T12:21:58.301Z,515.00
2024-02-03T12:22:58.130Z,518.00
2024-02-03T12:23:58.074Z,516.00
2024-02-03T12:24:58.165Z,514.00
2024-02-03T12:25:58.095Z,513.00
2024-02-03T12:26:58.097Z,514.00
2024-02-03T12:27:58.124Z,514.00
2024-02-03T12:28:58.081Z,515.00
2024-02-03T12:29:58.038Z,514.00
2024-02-03T12:30:58.169Z,514.00
2024-02-03T12:31:57.971Z,512.00
2024-02-03T12:32:57.954Z,513.00
2024-02-03T12:33:58.062Z,515.00
2024-02-03T12:34:58.032Z,514.00
2024-02-03T12:35:57.854Z,512.00
2024-02-03T12:36:57.879Z,513.00
2024-02-03T12:37:57.777Z,515.00
2024-02-03T12:38:57.742Z,515.00
2024-02-03T12:39:57.850Z,514.00
2024-02-03T12:40:57.713Z,513.00
2024-02-03T12:41:57.629Z,513.00
2024-02-03T12:42:57.758Z,514.00
2024-02-03T12:43:57.562Z,513.00
2024-02-03T12:44:57.512Z,513.00
2024-02-03T12:45:57.527Z,511.00
2024-02-03T12:46:57.434Z,510.00
2024-02-03T12:47:57.468Z,510.00
2024-02-03T12:48:57.474Z,511.00
2024-02-03T12:49:57.612Z,509.00
2024-02-03T12:50:57.319Z,511.00
2024-02-03T12:51:57.280Z,511.00
2024-02-03T12:52:57.242Z,511.00
2024-02-03T12:53:57.256Z,509.00
2024-02-03T12:54:57.293Z,508.00
2024-02-03T12:55:57.234Z,506.00
2024-02-03T12:56:57.219Z,508.00
2024-02-03T12:57:57.231Z,507.00
2024-02-03T12:58:56.224Z,509.00
2024-02-03T12:59:57.220Z,506.00
2024-02-03T13:00:57.257Z,505.00
2024-02-03T13:01:57.234Z,501.00
2024-02-03T13:02:57.284Z,505.00
2024-02-03T13:03:57.401Z,506.00
2024-02-03T13:04:57.243Z,514.00
2024-02-03T13:05:57.416Z,503.00
2024-02-03T13:06:57.413Z,510.00
2024-02-03T13:07:57.336Z,510.00
2024-02-03T13:08:57.406Z,510.00
2024-02-03T13:09:57.824Z,515.00
2024-02-03T13:10:57.923Z,515.00
2024-02-03T13:11:57.321Z,511.00
2024-02-03T13:12:57.389Z,512.00
2024-02-03T13:13:57.334Z,513.00
2024-02-03T13:14:57.341Z,508.00
2024-02-03T13:15:57.476Z,510.00
2024-02-03T13:16:57.333Z,510.00
2024-02-03T13:17:57.332Z,508.00
2024-02-03T13:18:57.400Z,510.00
2024-02-03T13:19:57.416Z,512.00
2024-02-03T13:20:57.376Z,517.00
2024-02-03T13:21:57.449Z,514.00
2024-02-03T13:22:57.387Z,514.00
2024-02-03T13:23:57.400Z,513.00